Back to Top

Language: 

My Weather Underground Personal Weather Station Historical Data with Graphs...

Delerius Weather Station Historical Data
Daily Summary for April 29, 2017 Units:  Both    English   Metric
« Previous Day
Next Day »
Daily Weekly Monthly Yearly Custom
  High: Low: Average:
Temperature: 54.3 °F /  12.4 °C 45.0 °F /  7.2 °C 50 °F /  10 °C
Dew Point: 44.1 °F /  6.7 °C 37.5 °F /  3.1 °C 41.6 °F /  5.3 °C
Humidity: 91 % 54 % 74 %
Wind Speed: 10.0 mph /  16.1 km/h - 3.3 mph /  5.3 km/h
Wind Gust: 19.0 mph /  30.6 km/h - -
Wind:- - South
Pressure: 29.99 in /  1015.5 hPa 29.84 in /  1010.4 hPa -
Precipitation: 0.00 in /  0 mm    
Historical Graphs
 
 
Tabular Data for April 29, 2017
Time Temperature Dew Point Pressure Wind Wind Speed Wind Gust Humidity Rainfall Rate (Hourly) solar Conditions
00:03 48.0 °F /  8.9 °C 43.4 °F /  6.3 °C 29.98 in /  1015.1 hPa Calm   3.0 mph /  4.8 km/h 84 % 0.00 in /  0 mm 0 W/m2
00:08 48.0 °F /  8.9 °C 43.4 °F /  6.3 °C 29.98 in /  1015.1 hPa Calm   2.0 mph /  3.2 km/h 84 % 0.00 in /  0 mm 0 W/m2
00:13 48.0 °F /  8.9 °C 43.4 °F /  6.3 °C 29.99 in /  1015.5 hPa Calm   2.0 mph /  3.2 km/h 84 % 0.00 in /  0 mm 0 W/m2
00:18 48.0 °F /  8.9 °C 43.4 °F /  6.3 °C 29.99 in /  1015.5 hPa Calm   3.0 mph /  4.8 km/h 84 % 0.00 in /  0 mm 0 W/m2
00:23 48.0 °F /  8.9 °C 43.4 °F /  6.3 °C 29.98 in /  1015.1 hPa WNW 1.0 mph /  1.6 km/h 5.0 mph /  8 km/h 84 % 0.00 in /  0 mm 0 W/m2
00:28 48.0 °F /  8.9 °C 43.4 °F /  6.3 °C 29.98 in /  1015.1 hPa WNW 1.0 mph /  1.6 km/h 5.0 mph /  8 km/h 84 % 0.00 in /  0 mm 0 W/m2
00:33 47.8 °F /  8.8 °C 43.2 °F /  6.2 °C 29.98 in /  1015.1 hPa Calm   2.0 mph /  3.2 km/h 84 % 0.00 in /  0 mm 0 W/m2
00:38 47.8 °F /  8.8 °C 43.2 °F /  6.2 °C 29.98 in /  1015.1 hPa WNW 1.0 mph /  1.6 km/h 3.0 mph /  4.8 km/h 84 % 0.00 in /  0 mm 0 W/m2
00:43 47.8 °F /  8.8 °C 43.5 °F /  6.4 °C 29.98 in /  1015.1 hPa Calm   3.0 mph /  4.8 km/h 85 % 0.00 in /  0 mm 0 W/m2
00:44 47.8 °F /  8.8 °C 43.5 °F /  6.4 °C 29.98 in /  1015.1 hPa Calm   3.0 mph /  4.8 km/h 85 % 0.00 in /  0 mm 0 W/m2
00:49 47.8 °F /  8.8 °C 43.5 °F /  6.4 °C 29.98 in /  1015.1 hPa Calm   2.0 mph /  3.2 km/h 85 % 0.00 in /  0 mm 0 W/m2
00:54 47.7 °F /  8.7 °C 43.4 °F /  6.3 °C 29.98 in /  1015.1 hPa Calm   2.0 mph /  3.2 km/h 85 % 0.00 in /  0 mm 0 W/m2
00:59 47.7 °F /  8.7 °C 43.4 °F /  6.3 °C 29.98 in /  1015.1 hPa Calm   2.0 mph /  3.2 km/h 85 % 0.00 in /  0 mm 0 W/m2
01:04 47.7 °F /  8.7 °C 43.4 °F /  6.3 °C 29.98 in /  1015.1 hPa Calm   1.0 mph /  1.6 km/h 85 % 0.00 in /  0 mm 0 W/m2
01:09 47.5 °F /  8.6 °C 43.2 °F /  6.2 °C 29.98 in /  1015.1 hPa Calm   1.0 mph /  1.6 km/h 85 % 0.00 in /  0 mm 0 W/m2
01:14 47.5 °F /  8.6 °C 43.2 °F /  6.2 °C 29.98 in /  1015.1 hPa Calm   2.0 mph /  3.2 km/h 85 % 0.00 in /  0 mm 0 W/m2
01:19 47.5 °F /  8.6 °C 43.2 °F /  6.2 °C 29.98 in /  1015.1 hPa Calm   4.0 mph /  6.4 km/h 85 % 0.00 in /  0 mm 0 W/m2
01:24 47.3 °F /  8.5 °C 43.0 °F /  6.1 °C 29.97 in /  1014.8 hPa WNW 1.0 mph /  1.6 km/h 5.0 mph /  8 km/h 85 % 0.00 in /  0 mm 0 W/m2
01:29 47.1 °F /  8.4 °C 42.8 °F /  6 °C 29.97 in /  1014.8 hPa WNW 3.0 mph /  4.8 km/h 7.0 mph /  11.3 km/h 85 % 0.00 in /  0 mm 0 W/m2
01:34 47.1 °F /  8.4 °C 42.8 °F /  6 °C 29.97 in /  1014.8 hPa NW 3.0 mph /  4.8 km/h 7.0 mph /  11.3 km/h 85 % 0.00 in /  0 mm 0 W/m2
01:39 47.1 °F /  8.4 °C 42.5 °F /  5.8 °C 29.97 in /  1014.8 hPa NW 3.0 mph /  4.8 km/h 7.0 mph /  11.3 km/h 84 % 0.00 in /  0 mm 0 W/m2
01:44 47.1 °F /  8.4 °C 42.5 °F /  5.8 °C 29.97 in /  1014.8 hPa NW 3.0 mph /  4.8 km/h 7.0 mph /  11.3 km/h 84 % 0.00 in /  0 mm 0 W/m2
01:49 47.1 °F /  8.4 °C 42.5 °F /  5.8 °C 29.97 in /  1014.8 hPa NW 2.0 mph /  3.2 km/h 6.0 mph /  9.7 km/h 84 % 0.00 in /  0 mm 0 W/m2
01:54 47.1 °F /  8.4 °C 42.5 °F /  5.8 °C 29.97 in /  1014.8 hPa NW 1.0 mph /  1.6 km/h 5.0 mph /  8 km/h 84 % 0.00 in /  0 mm 0 W/m2
01:59 47.1 °F /  8.4 °C 42.5 °F /  5.8 °C 29.97 in /  1014.8 hPa Calm   2.0 mph /  3.2 km/h 84 % 0.00 in /  0 mm 0 W/m2
02:04 47.1 °F /  8.4 °C 42.5 °F /  5.8 °C 29.97 in /  1014.8 hPa Calm   4.0 mph /  6.4 km/h 84 % 0.00 in /  0 mm 0 W/m2
02:09 47.1 °F /  8.4 °C 42.5 °F /  5.8 °C 29.97 in /  1014.8 hPa NW 1.0 mph /  1.6 km/h 4.0 mph /  6.4 km/h 84 % 0.00 in /  0 mm 0 W/m2
02:14 47.1 °F /  8.4 °C 42.5 °F /  5.8 °C 29.97 in /  1014.8 hPa Calm   3.0 mph /  4.8 km/h 84 % 0.00 in /  0 mm 0 W/m2
02:19 46.9 °F /  8.3 °C 42.7 °F /  5.9 °C 29.97 in /  1014.8 hPa Calm   1.0 mph /  1.6 km/h 85 % 0.00 in /  0 mm 0 W/m2
02:24 46.9 °F /  8.3 °C 42.7 °F /  5.9 °C 29.97 in /  1014.8 hPa Calm   2.0 mph /  3.2 km/h 85 % 0.00 in /  0 mm 0 W/m2
02:29 46.9 °F /  8.3 °C 42.7 °F /  5.9 °C 29.96 in /  1014.4 hPa Calm   2.0 mph /  3.2 km/h 85 % 0.00 in /  0 mm 0 W/m2
02:34 46.9 °F /  8.3 °C 42.7 °F /  5.9 °C 29.97 in /  1014.8 hPa Calm   1.0 mph /  1.6 km/h 85 % 0.00 in /  0 mm 0 W/m2
02:39 46.9 °F /  8.3 °C 42.7 °F /  5.9 °C 29.96 in /  1014.4 hPa Calm     85 % 0.00 in /  0 mm 0 W/m2
02:44 46.9 °F /  8.3 °C 42.7 °F /  5.9 °C 29.96 in /  1014.4 hPa Calm   2.0 mph /  3.2 km/h 85 % 0.00 in /  0 mm 0 W/m2
02:49 46.8 °F /  8.2 °C 42.5 °F /  5.8 °C 29.97 in /  1014.8 hPa Calm   2.0 mph /  3.2 km/h 85 % 0.00 in /  0 mm 0 W/m2
02:54 46.8 °F /  8.2 °C 42.8 °F /  6 °C 29.96 in /  1014.4 hPa Calm   1.0 mph /  1.6 km/h 86 % 0.00 in /  0 mm 0 W/m2
02:59 46.8 °F /  8.2 °C 42.8 °F /  6 °C 29.97 in /  1014.8 hPa Calm   2.0 mph /  3.2 km/h 86 % 0.00 in /  0 mm 0 W/m2
03:04 46.8 °F /  8.2 °C 42.8 °F /  6 °C 29.97 in /  1014.8 hPa Calm   2.0 mph /  3.2 km/h 86 % 0.00 in /  0 mm 0 W/m2
03:09 46.6 °F /  8.1 °C 42.6 °F /  5.9 °C 29.97 in /  1014.8 hPa Calm   1.0 mph /  1.6 km/h 86 % 0.00 in /  0 mm 0 W/m2
03:14 46.6 °F /  8.1 °C 42.9 °F /  6.1 °C 29.97 in /  1014.8 hPa Calm   2.0 mph /  3.2 km/h 87 % 0.00 in /  0 mm 0 W/m2
03:19 46.6 °F /  8.1 °C 42.9 °F /  6.1 °C 29.96 in /  1014.4 hPa Calm   3.0 mph /  4.8 km/h 87 % 0.00 in /  0 mm 0 W/m2
03:24 46.2 °F /  7.9 °C 42.6 °F /  5.9 °C 29.96 in /  1014.4 hPa Calm   3.0 mph /  4.8 km/h 87 % 0.00 in /  0 mm 0 W/m2
03:29 46.2 °F /  7.9 °C 42.9 °F /  6.1 °C 29.96 in /  1014.4 hPa Calm   3.0 mph /  4.8 km/h 88 % 0.00 in /  0 mm 0 W/m2
03:34 46.2 °F /  7.9 °C 42.9 °F /  6.1 °C 29.96 in /  1014.4 hPa Calm   1.0 mph /  1.6 km/h 88 % 0.00 in /  0 mm 0 W/m2
03:39 46.2 °F /  7.9 °C 42.9 °F /  6.1 °C 29.96 in /  1014.4 hPa Calm     88 % 0.00 in /  0 mm 0 W/m2
03:44 46.2 °F /  7.9 °C 42.9 °F /  6.1 °C 29.96 in /  1014.4 hPa Calm     88 % 0.00 in /  0 mm 0 W/m2
03:45 46.2 °F /  7.9 °C 42.9 °F /  6.1 °C 29.96 in /  1014.4 hPa Calm     88 % 0.00 in /  0 mm 0 W/m2
03:50 46.2 °F /  7.9 °C 42.9 °F /  6.1 °C 29.96 in /  1014.4 hPa Calm     88 % 0.00 in /  0 mm 0 W/m2
03:55 46.0 °F /  7.8 °C 42.7 °F /  5.9 °C 29.96 in /  1014.4 hPa Calm     88 % 0.00 in /  0 mm 0 W/m2
04:00 46.0 °F /  7.8 °C 42.7 °F /  5.9 °C 29.96 in /  1014.4 hPa Calm     88 % 0.00 in /  0 mm 0 W/m2
04:05 46.0 °F /  7.8 °C 42.7 °F /  5.9 °C 29.96 in /  1014.4 hPa Calm     88 % 0.00 in /  0 mm 0 W/m2
04:10 46.0 °F /  7.8 °C 42.7 °F /  5.9 °C 29.95 in /  1014.1 hPa Calm     88 % 0.00 in /  0 mm 0 W/m2
04:14 45.9 °F /  7.7 °C 42.5 °F /  5.8 °C 29.95 in /  1014.1 hPa Calm     88 % 0.00 in /  0 mm 0 W/m2
04:19 45.9 °F /  7.7 °C 42.5 °F /  5.8 °C 29.95 in /  1014.1 hPa Calm     88 % 0.00 in /  0 mm 0 W/m2
04:24 45.7 °F /  7.6 °C 42.3 °F /  5.7 °C 29.96 in /  1014.4 hPa Calm     88 % 0.00 in /  0 mm 0 W/m2
04:29 45.7 °F /  7.6 °C 42.6 °F /  5.9 °C 29.96 in /  1014.4 hPa Calm     89 % 0.00 in /  0 mm 0 W/m2
04:34 45.7 °F /  7.6 °C 42.6 °F /  5.9 °C 29.95 in /  1014.1 hPa Calm     89 % 0.00 in /  0 mm 0 W/m2
04:39 45.7 °F /  7.6 °C 42.3 °F /  5.7 °C 29.95 in /  1014.1 hPa Calm     88 % 0.00 in /  0 mm 0 W/m2
04:44 45.7 °F /  7.6 °C 42.3 °F /  5.7 °C 29.95 in /  1014.1 hPa Calm     88 % 0.00 in /  0 mm 0 W/m2
04:49 45.7 °F /  7.6 °C 42.6 °F /  5.9 °C 29.95 in /  1014.1 hPa Calm     89 % 0.00 in /  0 mm 0 W/m2
04:54 45.7 °F /  7.6 °C 42.6 °F /  5.9 °C 29.95 in /  1014.1 hPa Calm     89 % 0.00 in /  0 mm 0 W/m2
05:00 45.7 °F /  7.6 °C 42.6 °F /  5.9 °C 29.95 in /  1014.1 hPa Calm     89 % 0.00 in /  0 mm 0 W/m2
05:05 45.7 °F /  7.6 °C 42.6 °F /  5.9 °C 29.95 in /  1014.1 hPa Calm     89 % 0.00 in /  0 mm 0 W/m2
05:10 45.7 °F /  7.6 °C 42.6 °F /  5.9 °C 29.95 in /  1014.1 hPa Calm     89 % 0.00 in /  0 mm 0 W/m2
05:15 45.5 °F /  7.5 °C 42.4 °F /  5.8 °C 29.95 in /  1014.1 hPa Calm     89 % 0.00 in /  0 mm 0 W/m2
05:20 45.5 °F /  7.5 °C 42.4 °F /  5.8 °C 29.95 in /  1014.1 hPa Calm   2.0 mph /  3.2 km/h 89 % 0.00 in /  0 mm 0 W/m2
05:25 45.3 °F /  7.4 °C 42.3 °F /  5.7 °C 29.94 in /  1013.8 hPa Calm   3.0 mph /  4.8 km/h 89 % 0.00 in /  0 mm 0 W/m2
05:30 45.3 °F /  7.4 °C 42.3 °F /  5.7 °C 29.94 in /  1013.8 hPa Calm   3.0 mph /  4.8 km/h 89 % 0.00 in /  0 mm 0 W/m2
05:35 45.3 °F /  7.4 °C 42.3 °F /  5.7 °C 29.94 in /  1013.8 hPa Calm     89 % 0.00 in /  0 mm 0 W/m2
05:40 45.1 °F /  7.3 °C 42.1 °F /  5.6 °C 29.94 in /  1013.8 hPa Calm     89 % 0.00 in /  0 mm 0 W/m2
05:45 45.1 °F /  7.3 °C 42.4 °F /  5.8 °C 29.95 in /  1014.1 hPa Calm   2.0 mph /  3.2 km/h 90 % 0.00 in /  0 mm 0 W/m2
05:50 45.1 °F /  7.3 °C 42.4 °F /  5.8 °C 29.95 in /  1014.1 hPa Calm   2.0 mph /  3.2 km/h 90 % 0.00 in /  0 mm 5 W/m2
05:55 45.1 °F /  7.3 °C 42.4 °F /  5.8 °C 29.94 in /  1013.8 hPa Calm   2.0 mph /  3.2 km/h 90 % 0.00 in /  0 mm 5 W/m2
06:00 45.0 °F /  7.2 °C 42.2 °F /  5.7 °C 29.95 in /  1014.1 hPa Calm     90 % 0.00 in /  0 mm 7 W/m2
06:05 45.0 °F /  7.2 °C 42.2 °F /  5.7 °C 29.95 in /  1014.1 hPa Calm     90 % 0.00 in /  0 mm 9 W/m2
06:10 45.0 °F /  7.2 °C 42.5 °F /  5.8 °C 29.95 in /  1014.1 hPa Calm     91 % 0.00 in /  0 mm 11 W/m2
06:15 45.0 °F /  7.2 °C 42.5 °F /  5.8 °C 29.95 in /  1014.1 hPa Calm     91 % 0.00 in /  0 mm 12 W/m2
06:20 45.0 °F /  7.2 °C 42.5 °F /  5.8 °C 29.95 in /  1014.1 hPa Calm     91 % 0.00 in /  0 mm 19 W/m2
06:25 45.0 °F /  7.2 °C 42.5 °F /  5.8 °C 29.95 in /  1014.1 hPa Calm     91 % 0.00 in /  0 mm 21 W/m2
06:30 45.0 °F /  7.2 °C 42.5 °F /  5.8 °C 29.95 in /  1014.1 hPa Calm     91 % 0.00 in /  0 mm 25 W/m2
06:35 45.1 °F /  7.3 °C 42.7 °F /  5.9 °C 29.95 in /  1014.1 hPa Calm     91 % 0.00 in /  0 mm 33 W/m2
06:40 45.1 °F /  7.3 °C 42.7 °F /  5.9 °C 29.95 in /  1014.1 hPa Calm     91 % 0.00 in /  0 mm 42 W/m2
06:45 45.3 °F /  7.4 °C 42.8 °F /  6 °C 29.95 in /  1014.1 hPa Calm     91 % 0.00 in /  0 mm 47 W/m2
06:50 45.3 °F /  7.4 °C 42.8 °F /  6 °C 29.95 in /  1014.1 hPa Calm     91 % 0.00 in /  0 mm 46 W/m2
06:55 45.3 °F /  7.4 °C 42.8 °F /  6 °C 29.95 in /  1014.1 hPa Calm     91 % 0.00 in /  0 mm 46 W/m2
07:00 45.5 °F /  7.5 °C 43.0 °F /  6.1 °C 29.95 in /  1014.1 hPa Calm     91 % 0.00 in /  0 mm 49 W/m2
07:05 45.5 °F /  7.5 °C 43.0 °F /  6.1 °C 29.95 in /  1014.1 hPa Calm     91 % 0.00 in /  0 mm 53 W/m2
07:10 45.5 °F /  7.5 °C 43.0 °F /  6.1 °C 29.95 in /  1014.1 hPa Calm     91 % 0.00 in /  0 mm 58 W/m2
07:15 45.7 °F /  7.6 °C 43.2 °F /  6.2 °C 29.95 in /  1014.1 hPa Calm     91 % 0.00 in /  0 mm 51 W/m2
07:20 45.7 °F /  7.6 °C 43.2 °F /  6.2 °C 29.95 in /  1014.1 hPa Calm     91 % 0.00 in /  0 mm 51 W/m2
07:25 45.9 °F /  7.7 °C 43.4 °F /  6.3 °C 29.95 in /  1014.1 hPa Calm     91 % 0.00 in /  0 mm 53 W/m2
07:30 45.9 °F /  7.7 °C 43.1 °F /  6.2 °C 29.95 in /  1014.1 hPa Calm     90 % 0.00 in /  0 mm 67 W/m2
07:35 46.0 °F /  7.8 °C 43.3 °F /  6.3 °C 29.95 in /  1014.1 hPa Calm     90 % 0.00 in /  0 mm 58 W/m2
07:40 46.0 °F /  7.8 °C 43.0 °F /  6.1 °C 29.95 in /  1014.1 hPa Calm     89 % 0.00 in /  0 mm 86 W/m2
07:45 46.2 °F /  7.9 °C 43.2 °F /  6.2 °C 29.95 in /  1014.1 hPa Calm     89 % 0.00 in /  0 mm 90 W/m2
07:50 46.4 °F /  8 °C 43.3 °F /  6.3 °C 29.95 in /  1014.1 hPa Calm     89 % 0.00 in /  0 mm 100 W/m2
07:56 46.6 °F /  8.1 °C 43.2 °F /  6.2 °C 29.95 in /  1014.1 hPa Calm     88 % 0.00 in /  0 mm 90 W/m2
08:01 46.8 °F /  8.2 °C 43.4 °F /  6.3 °C 29.95 in /  1014.1 hPa Calm     88 % 0.00 in /  0 mm 83 W/m2
08:06 46.9 °F /  8.3 °C 43.0 °F /  6.1 °C 29.95 in /  1014.1 hPa Calm     86 % 0.00 in /  0 mm 67 W/m2
08:11 46.9 °F /  8.3 °C 42.7 °F /  5.9 °C 29.95 in /  1014.1 hPa Calm     85 % 0.00 in /  0 mm 54 W/m2
08:16 47.1 °F /  8.4 °C 42.5 °F /  5.8 °C 29.95 in /  1014.1 hPa Calm     84 % 0.00 in /  0 mm 51 W/m2
08:21 47.3 °F /  8.5 °C 42.4 °F /  5.8 °C 29.95 in /  1014.1 hPa Calm     83 % 0.00 in /  0 mm 46 W/m2
08:26 47.5 °F /  8.6 °C 42.6 °F /  5.9 °C 29.95 in /  1014.1 hPa Calm     83 % 0.00 in /  0 mm 53 W/m2
08:31 47.5 °F /  8.6 °C 42.3 °F /  5.7 °C 29.95 in /  1014.1 hPa Calm     82 % 0.00 in /  0 mm 60 W/m2
08:36 47.7 °F /  8.7 °C 42.4 °F /  5.8 °C 29.95 in /  1014.1 hPa Calm   2.0 mph /  3.2 km/h 82 % 0.00 in /  0 mm 72 W/m2
08:41 47.5 °F /  8.6 °C 41.9 °F /  5.5 °C 29.95 in /  1014.1 hPa Calm   2.0 mph /  3.2 km/h 81 % 0.00 in /  0 mm 77 W/m2
08:46 47.7 °F /  8.7 °C 42.1 °F /  5.6 °C 29.95 in /  1014.1 hPa Calm   2.0 mph /  3.2 km/h 81 % 0.00 in /  0 mm 79 W/m2
08:51 47.7 °F /  8.7 °C 42.1 °F /  5.6 °C 29.95 in /  1014.1 hPa Calm   2.0 mph /  3.2 km/h 81 % 0.00 in /  0 mm 74 W/m2
08:56 47.7 °F /  8.7 °C 42.1 °F /  5.6 °C 29.95 in /  1014.1 hPa Calm   2.0 mph /  3.2 km/h 81 % 0.00 in /  0 mm 109 W/m2
09:01 47.8 °F /  8.8 °C 42.3 °F /  5.7 °C 29.95 in /  1014.1 hPa Calm   2.0 mph /  3.2 km/h 81 % 0.00 in /  0 mm 127 W/m2
09:06 48.0 °F /  8.9 °C 42.5 °F /  5.8 °C 29.95 in /  1014.1 hPa Calm     81 % 0.00 in /  0 mm 206 W/m2
09:11 48.4 °F /  9.1 °C 42.8 °F /  6 °C 29.95 in /  1014.1 hPa Calm     81 % 0.00 in /  0 mm 283 W/m2
09:16 48.7 °F /  9.3 °C 42.5 °F /  5.8 °C 29.95 in /  1014.1 hPa Calm   2.0 mph /  3.2 km/h 79 % 0.00 in /  0 mm 396 W/m2
09:21 49.1 °F /  9.5 °C 42.9 °F /  6.1 °C 29.95 in /  1014.1 hPa Calm   2.0 mph /  3.2 km/h 79 % 0.00 in /  0 mm 383 W/m2
09:26 49.6 °F /  9.8 °C 43.1 °F /  6.2 °C 29.95 in /  1014.1 hPa Calm   4.0 mph /  6.4 km/h 78 % 0.00 in /  0 mm 378 W/m2
09:31 50.2 °F /  10.1 °C 43.2 °F /  6.2 °C 29.95 in /  1014.1 hPa NW 1.0 mph /  1.6 km/h 4.0 mph /  6.4 km/h 77 % 0.00 in /  0 mm 353 W/m2
09:36 50.5 °F /  10.3 °C 43.3 °F /  6.3 °C 29.95 in /  1014.1 hPa NW 1.0 mph /  1.6 km/h 3.0 mph /  4.8 km/h 76 % 0.00 in /  0 mm 677 W/m2
09:41 51.1 °F /  10.6 °C 43.4 °F /  6.3 °C 29.94 in /  1013.8 hPa Calm   4.0 mph /  6.4 km/h 75 % 0.00 in /  0 mm 323 W/m2
09:46 51.6 °F /  10.9 °C 43.6 °F /  6.4 °C 29.94 in /  1013.8 hPa Calm   4.0 mph /  6.4 km/h 74 % 0.00 in /  0 mm 729 W/m2
09:51 52.3 °F /  11.3 °C 43.9 °F /  6.6 °C 29.94 in /  1013.8 hPa NW 1.0 mph /  1.6 km/h 5.0 mph /  8 km/h 73 % 0.00 in /  0 mm 510 W/m2
09:56 52.5 °F /  11.4 °C 43.8 °F /  6.6 °C 29.94 in /  1013.8 hPa NW 1.0 mph /  1.6 km/h 5.0 mph /  8 km/h 72 % 0.00 in /  0 mm 737 W/m2
10:01 52.9 °F /  11.6 °C 43.7 °F /  6.5 °C 29.94 in /  1013.8 hPa WNW 1.0 mph /  1.6 km/h 4.0 mph /  6.4 km/h 71 % 0.00 in /  0 mm 262 W/m2
10:06 52.9 °F /  11.6 °C 44.1 °F /  6.7 °C 29.94 in /  1013.8 hPa WNW 1.0 mph /  1.6 km/h 5.0 mph /  8 km/h 72 % 0.00 in /  0 mm 327 W/m2
10:11 53.2 °F /  11.8 °C 43.7 °F /  6.5 °C 29.94 in /  1013.8 hPa NW 1.0 mph /  1.6 km/h 5.0 mph /  8 km/h 70 % 0.00 in /  0 mm 239 W/m2
10:16 53.2 °F /  11.8 °C 43.7 °F /  6.5 °C 29.94 in /  1013.8 hPa NW 1.0 mph /  1.6 km/h 5.0 mph /  8 km/h 70 % 0.00 in /  0 mm 167 W/m2
10:21 53.1 °F /  11.7 °C 43.9 °F /  6.6 °C 29.94 in /  1013.8 hPa West 2.0 mph /  3.2 km/h 6.0 mph /  9.7 km/h 71 % 0.00 in /  0 mm 109 W/m2
10:26 52.5 °F /  11.4 °C 43.8 °F /  6.6 °C 29.94 in /  1013.8 hPa West 5.0 mph /  8 km/h 9.0 mph /  14.5 km/h 72 % 0.00 in /  0 mm 90 W/m2
10:31 52.0 °F /  11.1 °C 43.6 °F /  6.4 °C 29.94 in /  1013.8 hPa West 6.0 mph /  9.7 km/h 10.0 mph /  16.1 km/h 73 % 0.00 in /  0 mm 65 W/m2
10:36 51.4 °F /  10.8 °C 43.8 °F /  6.6 °C 29.94 in /  1013.8 hPa West 5.0 mph /  8 km/h 10.0 mph /  16.1 km/h 75 % 0.00 in /  0 mm 56 W/m2
10:41 51.3 °F /  10.7 °C 43.6 °F /  6.4 °C 29.94 in /  1013.8 hPa WNW 3.0 mph /  4.8 km/h 6.0 mph /  9.7 km/h 75 % 0.00 in /  0 mm 60 W/m2
10:47 51.1 °F /  10.6 °C 43.4 °F /  6.3 °C 29.94 in /  1013.8 hPa West 4.0 mph /  6.4 km/h 7.0 mph /  11.3 km/h 75 % 0.00 in /  0 mm 67 W/m2
10:52 50.9 °F /  10.5 °C 43.6 °F /  6.4 °C 29.94 in /  1013.8 hPa WNW 4.0 mph /  6.4 km/h 7.0 mph /  11.3 km/h 76 % 0.00 in /  0 mm 69 W/m2
10:57 50.5 °F /  10.3 °C 43.6 °F /  6.4 °C 29.94 in /  1013.8 hPa West 5.0 mph /  8 km/h 8.0 mph /  12.9 km/h 77 % 0.00 in /  0 mm 79 W/m2
11:02 50.4 °F /  10.2 °C 43.4 °F /  6.3 °C 29.94 in /  1013.8 hPa West 5.0 mph /  8 km/h 8.0 mph /  12.9 km/h 77 % 0.00 in /  0 mm 93 W/m2
11:07 50.2 °F /  10.1 °C 43.2 °F /  6.2 °C 29.94 in /  1013.8 hPa West 6.0 mph /  9.7 km/h 10.0 mph /  16.1 km/h 77 % 0.00 in /  0 mm 104 W/m2
11:12 50.0 °F /  10 °C 43.1 °F /  6.2 °C 29.94 in /  1013.8 hPa West 6.0 mph /  9.7 km/h 10.0 mph /  16.1 km/h 77 % 0.00 in /  0 mm 95 W/m2
11:17 49.8 °F /  9.9 °C 42.9 °F /  6.1 °C 29.94 in /  1013.8 hPa West 5.0 mph /  8 km/h 9.0 mph /  14.5 km/h 77 % 0.00 in /  0 mm 90 W/m2
11:22 49.8 °F /  9.9 °C 42.9 °F /  6.1 °C 29.94 in /  1013.8 hPa WNW 5.0 mph /  8 km/h 8.0 mph /  12.9 km/h 77 % 0.00 in /  0 mm 95 W/m2
11:27 49.6 °F /  9.8 °C 42.4 °F /  5.8 °C 29.94 in /  1013.8 hPa WNW 4.0 mph /  6.4 km/h 8.0 mph /  12.9 km/h 76 % 0.00 in /  0 mm 104 W/m2
11:32 49.6 °F /  9.8 °C 42.4 °F /  5.8 °C 29.93 in /  1013.4 hPa West 4.0 mph /  6.4 km/h 8.0 mph /  12.9 km/h 76 % 0.00 in /  0 mm 121 W/m2
11:37 49.6 °F /  9.8 °C 42.0 °F /  5.6 °C 29.93 in /  1013.4 hPa West 4.0 mph /  6.4 km/h 7.0 mph /  11.3 km/h 75 % 0.00 in /  0 mm 146 W/m2
11:42 49.6 °F /  9.8 °C 41.7 °F /  5.4 °C 29.93 in /  1013.4 hPa WNW 3.0 mph /  4.8 km/h 7.0 mph /  11.3 km/h 74 % 0.00 in /  0 mm 181 W/m2
11:47 49.8 °F /  9.9 °C 41.5 °F /  5.3 °C 29.93 in /  1013.4 hPa NW 3.0 mph /  4.8 km/h 6.0 mph /  9.7 km/h 73 % 0.00 in /  0 mm 202 W/m2
11:52 50.0 °F /  10 °C 41.3 °F /  5.2 °C 29.93 in /  1013.4 hPa WNW 2.0 mph /  3.2 km/h 5.0 mph /  8 km/h 72 % 0.00 in /  0 mm 209 W/m2
11:57 50.2 °F /  10.1 °C 41.1 °F /  5.1 °C 29.93 in /  1013.4 hPa NW 1.0 mph /  1.6 km/h 5.0 mph /  8 km/h 71 % 0.00 in /  0 mm 216 W/m2
12:02 50.5 °F /  10.3 °C 41.1 °F /  5.1 °C 29.93 in /  1013.4 hPa NW 1.0 mph /  1.6 km/h 4.0 mph /  6.4 km/h 70 % 0.00 in /  0 mm 236 W/m2
12:07 50.7 °F /  10.4 °C 40.9 °F /  4.9 °C 29.93 in /  1013.4 hPa NW 1.0 mph /  1.6 km/h 5.0 mph /  8 km/h 69 % 0.00 in /  0 mm 255 W/m2
12:12 50.7 °F /  10.4 °C 40.5 °F /  4.7 °C 29.93 in /  1013.4 hPa NW 1.0 mph /  1.6 km/h 5.0 mph /  8 km/h 68 % 0.00 in /  0 mm 287 W/m2
12:17 51.1 °F /  10.6 °C 41.3 °F /  5.2 °C 29.93 in /  1013.4 hPa Calm   3.0 mph /  4.8 km/h 69 % 0.00 in /  0 mm 352 W/m2
12:22 51.3 °F /  10.7 °C 41.4 °F /  5.2 °C 29.93 in /  1013.4 hPa Calm   2.0 mph /  3.2 km/h 69 % 0.00 in /  0 mm 441 W/m2
12:27 51.6 °F /  10.9 °C 41.4 °F /  5.2 °C 29.93 in /  1013.4 hPa Calm   4.0 mph /  6.4 km/h 68 % 0.00 in /  0 mm 381 W/m2
12:32 52.2 °F /  11.2 °C 41.5 °F /  5.3 °C 29.93 in /  1013.4 hPa Calm   4.0 mph /  6.4 km/h 67 % 0.00 in /  0 mm 338 W/m2
12:37 52.3 °F /  11.3 °C 41.3 °F /  5.2 °C 29.92 in /  1013.1 hPa WNW 1.0 mph /  1.6 km/h 4.0 mph /  6.4 km/h 66 % 0.00 in /  0 mm 288 W/m2
12:42 52.7 °F /  11.5 °C 41.7 °F /  5.4 °C 29.92 in /  1013.1 hPa West 1.0 mph /  1.6 km/h 4.0 mph /  6.4 km/h 66 % 0.00 in /  0 mm 234 W/m2
12:47 52.9 °F /  11.6 °C 41.8 °F /  5.4 °C 29.92 in /  1013.1 hPa SE 1.0 mph /  1.6 km/h 6.0 mph /  9.7 km/h 66 % 0.00 in /  0 mm 193 W/m2
12:52 52.9 °F /  11.6 °C 41.4 °F /  5.2 °C 29.92 in /  1013.1 hPa SE 2.0 mph /  3.2 km/h 6.0 mph /  9.7 km/h 65 % 0.00 in /  0 mm 237 W/m2
12:57 52.9 °F /  11.6 °C 41.4 °F /  5.2 °C 29.92 in /  1013.1 hPa SSE 2.0 mph /  3.2 km/h 5.0 mph /  8 km/h 65 % 0.00 in /  0 mm 234 W/m2
13:02 52.9 °F /  11.6 °C 41.4 °F /  5.2 °C 29.92 in /  1013.1 hPa SE 3.0 mph /  4.8 km/h 10.0 mph /  16.1 km/h 65 % 0.00 in /  0 mm 251 W/m2
13:07 52.9 °F /  11.6 °C 41.0 °F /  5 °C 29.92 in /  1013.1 hPa SE 5.0 mph /  8 km/h 10.0 mph /  16.1 km/h 64 % 0.00 in /  0 mm 244 W/m2
13:12 53.1 °F /  11.7 °C 41.2 °F /  5.1 °C 29.92 in /  1013.1 hPa SE 6.0 mph /  9.7 km/h 12.0 mph /  19.3 km/h 64 % 0.00 in /  0 mm 309 W/m2
13:17 53.2 °F /  11.8 °C 41.0 °F /  5 °C 29.92 in /  1013.1 hPa SE 6.0 mph /  9.7 km/h 12.0 mph /  19.3 km/h 63 % 0.00 in /  0 mm 366 W/m2
13:22 53.6 °F /  12 °C 40.9 °F /  4.9 °C 29.91 in /  1012.8 hPa SSE 5.0 mph /  8 km/h 11.0 mph /  17.7 km/h 62 % 0.00 in /  0 mm 353 W/m2
13:27 53.8 °F /  12.1 °C 40.2 °F /  4.6 °C 29.91 in /  1012.8 hPa SSE 7.0 mph /  11.3 km/h 13.0 mph /  20.9 km/h 60 % 0.00 in /  0 mm 392 W/m2
13:32 53.8 °F /  12.1 °C 39.8 °F /  4.3 °C 29.92 in /  1013.1 hPa South 8.0 mph /  12.9 km/h 16.0 mph /  25.7 km/h 59 % 0.00 in /  0 mm 392 W/m2
13:37 53.8 °F /  12.1 °C 39.8 °F /  4.3 °C 29.92 in /  1013.1 hPa SSW 9.0 mph /  14.5 km/h 16.0 mph /  25.7 km/h 59 % 0.00 in /  0 mm 325 W/m2
13:43 53.6 °F /  12 °C 39.2 °F /  4 °C 29.92 in /  1013.1 hPa South 9.0 mph /  14.5 km/h 15.0 mph /  24.1 km/h 58 % 0.00 in /  0 mm 283 W/m2
13:46 53.6 °F /  12 °C 39.6 °F /  4.2 °C 29.92 in /  1013.1 hPa South 9.0 mph /  14.5 km/h 15.0 mph /  24.1 km/h 59 % 0.00 in /  0 mm 262 W/m2
13:51 53.6 °F /  12 °C 40.0 °F /  4.4 °C 29.92 in /  1013.1 hPa South 8.0 mph /  12.9 km/h 15.0 mph /  24.1 km/h 60 % 0.00 in /  0 mm 253 W/m2
13:56 53.6 °F /  12 °C 39.6 °F /  4.2 °C 29.92 in /  1013.1 hPa South 8.0 mph /  12.9 km/h 15.0 mph /  24.1 km/h 59 % 0.00 in /  0 mm 260 W/m2
14:01 53.6 °F /  12 °C 39.6 °F /  4.2 °C 29.92 in /  1013.1 hPa SSE 7.0 mph /  11.3 km/h 12.0 mph /  19.3 km/h 59 % 0.00 in /  0 mm 283 W/m2
14:06 53.6 °F /  12 °C 39.6 °F /  4.2 °C 29.92 in /  1013.1 hPa SSE 7.0 mph /  11.3 km/h 12.0 mph /  19.3 km/h 59 % 0.00 in /  0 mm 260 W/m2
14:11 53.6 °F /  12 °C 38.7 °F /  3.7 °C 29.91 in /  1012.8 hPa SE 7.0 mph /  11.3 km/h 11.0 mph /  17.7 km/h 57 % 0.00 in /  0 mm 276 W/m2
14:16 53.8 °F /  12.1 °C 39.3 °F /  4.1 °C 29.91 in /  1012.8 hPa SE 6.0 mph /  9.7 km/h 10.0 mph /  16.1 km/h 58 % 0.00 in /  0 mm 297 W/m2
14:21 53.8 °F /  12.1 °C 38.9 °F /  3.8 °C 29.91 in /  1012.8 hPa SSE 7.0 mph /  11.3 km/h 15.0 mph /  24.1 km/h 57 % 0.00 in /  0 mm 332 W/m2
14:26 54.0 °F /  12.2 °C 38.6 °F /  3.7 °C 29.91 in /  1012.8 hPa South 8.0 mph /  12.9 km/h 15.0 mph /  24.1 km/h 56 % 0.00 in /  0 mm 295 W/m2
14:31 54.1 °F /  12.3 °C 38.3 °F /  3.5 °C 29.91 in /  1012.8 hPa South 8.0 mph /  12.9 km/h 15.0 mph /  24.1 km/h 55 % 0.00 in /  0 mm 283 W/m2
14:36 54.0 °F /  12.2 °C 38.6 °F /  3.7 °C 29.91 in /  1012.8 hPa South 9.0 mph /  14.5 km/h 18.0 mph /  29 km/h 56 % 0.00 in /  0 mm 309 W/m2
14:41 54.0 °F /  12.2 °C 38.6 °F /  3.7 °C 29.91 in /  1012.8 hPa South 10.0 mph /  16.1 km/h 18.0 mph /  29 km/h 56 % 0.00 in /  0 mm 346 W/m2
14:46 54.0 °F /  12.2 °C 38.6 °F /  3.7 °C 29.91 in /  1012.8 hPa SSW 10.0 mph /  16.1 km/h 15.0 mph /  24.1 km/h 56 % 0.00 in /  0 mm 302 W/m2
14:51 53.8 °F /  12.1 °C 38.4 °F /  3.6 °C 29.91 in /  1012.8 hPa SSW 10.0 mph /  16.1 km/h 19.0 mph /  30.6 km/h 56 % 0.00 in /  0 mm 297 W/m2
14:56 53.6 °F /  12 °C 38.3 °F /  3.5 °C 29.91 in /  1012.8 hPa South 10.0 mph /  16.1 km/h 19.0 mph /  30.6 km/h 56 % 0.00 in /  0 mm 279 W/m2
15:01 53.4 °F /  11.9 °C 38.6 °F /  3.7 °C 29.91 in /  1012.8 hPa South 9.0 mph /  14.5 km/h 14.0 mph /  22.5 km/h 57 % 0.00 in /  0 mm 357 W/m2
15:06 53.6 °F /  12 °C 38.7 °F /  3.7 °C 29.91 in /  1012.8 hPa South 10.0 mph /  16.1 km/h 15.0 mph /  24.1 km/h 57 % 0.00 in /  0 mm 306 W/m2
15:11 53.6 °F /  12 °C 37.8 °F /  3.2 °C 29.91 in /  1012.8 hPa SSW 10.0 mph /  16.1 km/h 15.0 mph /  24.1 km/h 55 % 0.00 in /  0 mm 290 W/m2
15:16 53.4 °F /  11.9 °C 38.6 °F /  3.7 °C 29.91 in /  1012.8 hPa SSW 8.0 mph /  12.9 km/h 15.0 mph /  24.1 km/h 57 % 0.00 in /  0 mm 265 W/m2
15:21 53.6 °F /  12 °C 38.3 °F /  3.5 °C 29.90 in /  1012.4 hPa SSW 8.0 mph /  12.9 km/h 12.0 mph /  19.3 km/h 56 % 0.00 in /  0 mm 271 W/m2
15:26 53.8 °F /  12.1 °C 38.4 °F /  3.6 °C 29.90 in /  1012.4 hPa SW 8.0 mph /  12.9 km/h 13.0 mph /  20.9 km/h 56 % 0.00 in /  0 mm 241 W/m2
15:31 53.4 °F /  11.9 °C 37.6 °F /  3.1 °C 29.90 in /  1012.4 hPa SSW 8.0 mph /  12.9 km/h 13.0 mph /  20.9 km/h 55 % 0.00 in /  0 mm 229 W/m2
15:36 53.4 °F /  11.9 °C 37.6 °F /  3.1 °C 29.90 in /  1012.4 hPa SSW 8.0 mph /  12.9 km/h 13.0 mph /  20.9 km/h 55 % 0.00 in /  0 mm 234 W/m2
15:41 53.2 °F /  11.8 °C 37.5 °F /  3.1 °C 29.90 in /  1012.4 hPa SW 8.0 mph /  12.9 km/h 18.0 mph /  29 km/h 55 % 0.00 in /  0 mm 225 W/m2
15:46 53.4 °F /  11.9 °C 38.1 °F /  3.4 °C 29.90 in /  1012.4 hPa SSW 8.0 mph /  12.9 km/h 18.0 mph /  29 km/h 56 % 0.00 in /  0 mm 192 W/m2
15:51 53.4 °F /  11.9 °C 38.1 °F /  3.4 °C 29.90 in /  1012.4 hPa South 7.0 mph /  11.3 km/h 18.0 mph /  29 km/h 56 % 0.00 in /  0 mm 209 W/m2
15:56 53.4 °F /  11.9 °C 38.1 °F /  3.4 °C 29.90 in /  1012.4 hPa South 9.0 mph /  14.5 km/h 18.0 mph /  29 km/h 56 % 0.00 in /  0 mm 192 W/m2
16:01 53.2 °F /  11.8 °C 37.9 °F /  3.3 °C 29.90 in /  1012.4 hPa South 9.0 mph /  14.5 km/h 18.0 mph /  29 km/h 56 % 0.00 in /  0 mm 197 W/m2
16:06 53.4 °F /  11.9 °C 38.6 °F /  3.7 °C 29.90 in /  1012.4 hPa South 7.0 mph /  11.3 km/h 14.0 mph /  22.5 km/h 57 % 0.00 in /  0 mm 214 W/m2
16:11 53.6 °F /  12 °C 38.7 °F /  3.7 °C 29.90 in /  1012.4 hPa South 7.0 mph /  11.3 km/h 14.0 mph /  22.5 km/h 57 % 0.00 in /  0 mm 221 W/m2
16:16 53.8 °F /  12.1 °C 38.0 °F /  3.3 °C 29.89 in /  1012.1 hPa South 7.0 mph /  11.3 km/h 15.0 mph /  24.1 km/h 55 % 0.00 in /  0 mm 216 W/m2
16:21 53.8 °F /  12.1 °C 38.4 °F /  3.6 °C 29.89 in /  1012.1 hPa SSW 8.0 mph /  12.9 km/h 15.0 mph /  24.1 km/h 56 % 0.00 in /  0 mm 276 W/m2
16:26 54.0 °F /  12.2 °C 38.1 °F /  3.4 °C 29.89 in /  1012.1 hPa SSW 6.0 mph /  9.7 km/h 11.0 mph /  17.7 km/h 55 % 0.00 in /  0 mm 251 W/m2
16:31 54.0 °F /  12.2 °C 38.1 °F /  3.4 °C 29.89 in /  1012.1 hPa South 6.0 mph /  9.7 km/h 12.0 mph /  19.3 km/h 55 % 0.00 in /  0 mm 248 W/m2
16:36 54.0 °F /  12.2 °C 38.6 °F /  3.7 °C 29.89 in /  1012.1 hPa South 6.0 mph /  9.7 km/h 12.0 mph /  19.3 km/h 56 % 0.00 in /  0 mm 236 W/m2
16:41 54.1 °F /  12.3 °C 38.3 °F /  3.5 °C 29.89 in /  1012.1 hPa South 6.0 mph /  9.7 km/h 14.0 mph /  22.5 km/h 55 % 0.00 in /  0 mm 209 W/m2
16:46 54.1 °F /  12.3 °C 38.3 °F /  3.5 °C 29.89 in /  1012.1 hPa South 9.0 mph /  14.5 km/h 18.0 mph /  29 km/h 55 % 0.00 in /  0 mm 183 W/m2
16:51 54.1 °F /  12.3 °C 37.8 °F /  3.2 °C 29.89 in /  1012.1 hPa South 10.0 mph /  16.1 km/h 18.0 mph /  29 km/h 54 % 0.00 in /  0 mm 156 W/m2
16:56 54.1 °F /  12.3 °C 38.3 °F /  3.5 °C 29.88 in /  1011.7 hPa South 8.0 mph /  12.9 km/h 16.0 mph /  25.7 km/h 55 % 0.00 in /  0 mm 137 W/m2
17:01 54.1 °F /  12.3 °C 38.3 °F /  3.5 °C 29.88 in /  1011.7 hPa South 6.0 mph /  9.7 km/h 13.0 mph /  20.9 km/h 55 % 0.00 in /  0 mm 134 W/m2
17:06 54.1 °F /  12.3 °C 38.3 °F /  3.5 °C 29.88 in /  1011.7 hPa South 6.0 mph /  9.7 km/h 14.0 mph /  22.5 km/h 55 % 0.00 in /  0 mm 132 W/m2
17:12 54.3 °F /  12.4 °C 38.5 °F /  3.6 °C 29.88 in /  1011.7 hPa SSE 8.0 mph /  12.9 km/h 14.0 mph /  22.5 km/h 55 % 0.00 in /  0 mm 127 W/m2
17:17 54.3 °F /  12.4 °C 38.5 °F /  3.6 °C 29.88 in /  1011.7 hPa SE 8.0 mph /  12.9 km/h 13.0 mph /  20.9 km/h 55 % 0.00 in /  0 mm 134 W/m2
17:22 54.3 °F /  12.4 °C 38.5 °F /  3.6 °C 29.88 in /  1011.7 hPa SSE 7.0 mph /  11.3 km/h 12.0 mph /  19.3 km/h 55 % 0.00 in /  0 mm 123 W/m2
17:27 54.3 °F /  12.4 °C 38.9 °F /  3.8 °C 29.88 in /  1011.7 hPa SSE 6.0 mph /  9.7 km/h 11.0 mph /  17.7 km/h 56 % 0.00 in /  0 mm 125 W/m2
17:32 54.3 °F /  12.4 °C 38.9 °F /  3.8 °C 29.88 in /  1011.7 hPa South 6.0 mph /  9.7 km/h 13.0 mph /  20.9 km/h 56 % 0.00 in /  0 mm 120 W/m2
17:37 54.3 °F /  12.4 °C 38.9 °F /  3.8 °C 29.88 in /  1011.7 hPa SSE 6.0 mph /  9.7 km/h 13.0 mph /  20.9 km/h 56 % 0.00 in /  0 mm 111 W/m2
17:42 54.1 °F /  12.3 °C 38.8 °F /  3.8 °C 29.88 in /  1011.7 hPa SSE 6.0 mph /  9.7 km/h 14.0 mph /  22.5 km/h 56 % 0.00 in /  0 mm 91 W/m2
17:47 54.1 °F /  12.3 °C 39.2 °F /  4 °C 29.87 in /  1011.4 hPa SE 7.0 mph /  11.3 km/h 14.0 mph /  22.5 km/h 57 % 0.00 in /  0 mm 105 W/m2
17:52 54.1 °F /  12.3 °C 39.2 °F /  4 °C 29.87 in /  1011.4 hPa SE 7.0 mph /  11.3 km/h 12.0 mph /  19.3 km/h 57 % 0.00 in /  0 mm 93 W/m2
17:57 54.1 °F /  12.3 °C 39.2 °F /  4 °C 29.87 in /  1011.4 hPa SSE 7.0 mph /  11.3 km/h 11.0 mph /  17.7 km/h 57 % 0.00 in /  0 mm 77 W/m2
18:02 54.0 °F /  12.2 °C 39.1 °F /  3.9 °C 29.87 in /  1011.4 hPa SSE 8.0 mph /  12.9 km/h 14.0 mph /  22.5 km/h 57 % 0.00 in /  0 mm 76 W/m2
18:07 54.0 °F /  12.2 °C 39.5 °F /  4.2 °C 29.87 in /  1011.4 hPa SSE 9.0 mph /  14.5 km/h 14.0 mph /  22.5 km/h 58 % 0.00 in /  0 mm 76 W/m2
18:12 54.0 °F /  12.2 °C 39.5 °F /  4.2 °C 29.87 in /  1011.4 hPa SSE 8.0 mph /  12.9 km/h 14.0 mph /  22.5 km/h 58 % 0.00 in /  0 mm 70 W/m2
18:17 54.0 °F /  12.2 °C 39.5 °F /  4.2 °C 29.87 in /  1011.4 hPa SSE 7.0 mph /  11.3 km/h 12.0 mph /  19.3 km/h 58 % 0.00 in /  0 mm 69 W/m2
18:22 54.0 °F /  12.2 °C 38.6 °F /  3.7 °C 29.87 in /  1011.4 hPa SE 8.0 mph /  12.9 km/h 16.0 mph /  25.7 km/h 56 % 0.00 in /  0 mm 76 W/m2
18:27 54.0 °F /  12.2 °C 38.6 °F /  3.7 °C 29.86 in /  1011.1 hPa SE 9.0 mph /  14.5 km/h 16.0 mph /  25.7 km/h 56 % 0.00 in /  0 mm 74 W/m2
18:32 54.0 °F /  12.2 °C 38.6 °F /  3.7 °C 29.86 in /  1011.1 hPa SSE 8.0 mph /  12.9 km/h 13.0 mph /  20.9 km/h 56 % 0.00 in /  0 mm 58 W/m2
18:37 54.0 °F /  12.2 °C 38.6 °F /  3.7 °C 29.86 in /  1011.1 hPa SSE 7.0 mph /  11.3 km/h 13.0 mph /  20.9 km/h 56 % 0.00 in /  0 mm 40 W/m2
18:42 54.0 °F /  12.2 °C 38.6 °F /  3.7 °C 29.86 in /  1011.1 hPa SSE 6.0 mph /  9.7 km/h 13.0 mph /  20.9 km/h 56 % 0.00 in /  0 mm 33 W/m2
18:47 53.8 °F /  12.1 °C 39.3 °F /  4.1 °C 29.86 in /  1011.1 hPa SSE 6.0 mph /  9.7 km/h 13.0 mph /  20.9 km/h 58 % 0.00 in /  0 mm 33 W/m2
18:52 53.8 °F /  12.1 °C 39.8 °F /  4.3 °C 29.86 in /  1011.1 hPa SE 7.0 mph /  11.3 km/h 12.0 mph /  19.3 km/h 59 % 0.00 in /  0 mm 25 W/m2
18:57 53.6 °F /  12 °C 40.0 °F /  4.4 °C 29.86 in /  1011.1 hPa SE 7.0 mph /  11.3 km/h 12.0 mph /  19.3 km/h 60 % 0.00 in /  0 mm 26 W/m2
19:02 53.4 °F /  11.9 °C 40.3 °F /  4.6 °C 29.86 in /  1011.1 hPa SE 7.0 mph /  11.3 km/h 12.0 mph /  19.3 km/h 61 % 0.00 in /  0 mm 37 W/m2
19:07 53.4 °F /  11.9 °C 40.7 °F /  4.8 °C 29.86 in /  1011.1 hPa SE 6.0 mph /  9.7 km/h 11.0 mph /  17.7 km/h 62 % 0.00 in /  0 mm 33 W/m2
19:12 53.4 °F /  11.9 °C 40.7 °F /  4.8 °C 29.86 in /  1011.1 hPa SE 6.0 mph /  9.7 km/h 10.0 mph /  16.1 km/h 62 % 0.00 in /  0 mm 33 W/m2
19:17 53.2 °F /  11.8 °C 40.5 °F /  4.7 °C 29.86 in /  1011.1 hPa SE 6.0 mph /  9.7 km/h 10.0 mph /  16.1 km/h 62 % 0.00 in /  0 mm 37 W/m2
19:22 53.2 °F /  11.8 °C 40.5 °F /  4.7 °C 29.86 in /  1011.1 hPa SE 5.0 mph /  8 km/h 10.0 mph /  16.1 km/h 62 % 0.00 in /  0 mm 37 W/m2
19:27 53.2 °F /  11.8 °C 40.5 °F /  4.7 °C 29.86 in /  1011.1 hPa SE 5.0 mph /  8 km/h 8.0 mph /  12.9 km/h 62 % 0.00 in /  0 mm 33 W/m2
19:32 53.2 °F /  11.8 °C 40.1 °F /  4.5 °C 29.86 in /  1011.1 hPa SE 5.0 mph /  8 km/h 9.0 mph /  14.5 km/h 61 % 0.00 in /  0 mm 26 W/m2
19:37 53.2 °F /  11.8 °C 40.1 °F /  4.5 °C 29.86 in /  1011.1 hPa SE 5.0 mph /  8 km/h 9.0 mph /  14.5 km/h 61 % 0.00 in /  0 mm 23 W/m2
19:42 53.2 °F /  11.8 °C 40.1 °F /  4.5 °C 29.86 in /  1011.1 hPa SE 5.0 mph /  8 km/h 9.0 mph /  14.5 km/h 61 % 0.00 in /  0 mm 18 W/m2
19:47 53.2 °F /  11.8 °C 40.1 °F /  4.5 °C 29.86 in /  1011.1 hPa SE 5.0 mph /  8 km/h 8.0 mph /  12.9 km/h 61 % 0.00 in /  0 mm 19 W/m2
19:52 53.2 °F /  11.8 °C 40.1 °F /  4.5 °C 29.86 in /  1011.1 hPa SE 5.0 mph /  8 km/h 9.0 mph /  14.5 km/h 61 % 0.00 in /  0 mm 16 W/m2
19:57 53.1 °F /  11.7 °C 40.4 °F /  4.7 °C 29.86 in /  1011.1 hPa SE 5.0 mph /  8 km/h 9.0 mph /  14.5 km/h 62 % 0.00 in /  0 mm 12 W/m2
20:02 53.1 °F /  11.7 °C 40.4 °F /  4.7 °C 29.85 in /  1010.7 hPa SE 4.0 mph /  6.4 km/h 8.0 mph /  12.9 km/h 62 % 0.00 in /  0 mm 11 W/m2
20:08 53.1 °F /  11.7 °C 40.0 °F /  4.4 °C 29.86 in /  1011.1 hPa SE 4.0 mph /  6.4 km/h 8.0 mph /  12.9 km/h 61 % 0.00 in /  0 mm 9 W/m2
20:12 52.9 °F /  11.6 °C 40.2 °F /  4.6 °C 29.85 in /  1010.7 hPa SE 4.0 mph /  6.4 km/h 8.0 mph /  12.9 km/h 62 % 0.00 in /  0 mm 5 W/m2
20:18 52.9 °F /  11.6 °C 40.2 °F /  4.6 °C 29.85 in /  1010.7 hPa SE 4.0 mph /  6.4 km/h 9.0 mph /  14.5 km/h 62 % 0.00 in /  0 mm 0 W/m2
20:23 52.7 °F /  11.5 °C 40.0 °F /  4.4 °C 29.85 in /  1010.7 hPa ESE 5.0 mph /  8 km/h 9.0 mph /  14.5 km/h 62 % 0.00 in /  0 mm 0 W/m2
20:26 52.7 °F /  11.5 °C 40.0 °F /  4.4 °C 29.85 in /  1010.7 hPa ESE 5.0 mph /  8 km/h 8.0 mph /  12.9 km/h 62 % 0.00 in /  0 mm 0 W/m2
20:31 52.5 °F /  11.4 °C 40.3 °F /  4.6 °C 29.85 in /  1010.7 hPa ESE 5.0 mph /  8 km/h 8.0 mph /  12.9 km/h 63 % 0.00 in /  0 mm 0 W/m2
20:36 52.5 °F /  11.4 °C 40.3 °F /  4.6 °C 29.85 in /  1010.7 hPa ESE 5.0 mph /  8 km/h 8.0 mph /  12.9 km/h 63 % 0.00 in /  0 mm 0 W/m2
20:41 52.5 °F /  11.4 °C 40.3 °F /  4.6 °C 29.85 in /  1010.7 hPa ESE 5.0 mph /  8 km/h 10.0 mph /  16.1 km/h 63 % 0.00 in /  0 mm 0 W/m2
20:46 52.5 °F /  11.4 °C 40.7 °F /  4.8 °C 29.85 in /  1010.7 hPa ESE 5.0 mph /  8 km/h 10.0 mph /  16.1 km/h 64 % 0.00 in /  0 mm 0 W/m2
20:51 52.3 °F /  11.3 °C 40.5 °F /  4.7 °C 29.85 in /  1010.7 hPa ESE 5.0 mph /  8 km/h 9.0 mph /  14.5 km/h 64 % 0.00 in /  0 mm 0 W/m2
20:56 52.3 °F /  11.3 °C 40.9 °F /  4.9 °C 29.85 in /  1010.7 hPa ESE 5.0 mph /  8 km/h 9.0 mph /  14.5 km/h 65 % 0.00 in /  0 mm 0 W/m2
21:01 52.3 °F /  11.3 °C 40.9 °F /  4.9 °C 29.85 in /  1010.7 hPa ESE 5.0 mph /  8 km/h 9.0 mph /  14.5 km/h 65 % 0.00 in /  0 mm 0 W/m2
21:06 52.2 °F /  11.2 °C 40.7 °F /  4.8 °C 29.85 in /  1010.7 hPa ESE 5.0 mph /  8 km/h 9.0 mph /  14.5 km/h 65 % 0.00 in /  0 mm 0 W/m2
21:11 52.2 °F /  11.2 °C 40.7 °F /  4.8 °C 29.86 in /  1011.1 hPa ESE 5.0 mph /  8 km/h 9.0 mph /  14.5 km/h 65 % 0.00 in /  0 mm 0 W/m2
21:16 52.2 °F /  11.2 °C 41.1 °F /  5.1 °C 29.85 in /  1010.7 hPa ESE 3.0 mph /  4.8 km/h 7.0 mph /  11.3 km/h 66 % 0.00 in /  0 mm 0 W/m2
21:21 52.0 °F /  11.1 °C 41.0 °F /  5 °C 29.85 in /  1010.7 hPa ESE 4.0 mph /  6.4 km/h 9.0 mph /  14.5 km/h 66 % 0.00 in /  0 mm 0 W/m2
21:26 52.0 °F /  11.1 °C 41.4 °F /  5.2 °C 29.85 in /  1010.7 hPa ESE 6.0 mph /  9.7 km/h 12.0 mph /  19.3 km/h 67 % 0.00 in /  0 mm 0 W/m2
21:31 51.8 °F /  11 °C 41.9 °F /  5.5 °C 29.85 in /  1010.7 hPa ESE 6.0 mph /  9.7 km/h 12.0 mph /  19.3 km/h 69 % 0.00 in /  0 mm 0 W/m2
21:36 51.6 °F /  10.9 °C 42.2 °F /  5.7 °C 29.85 in /  1010.7 hPa ESE 7.0 mph /  11.3 km/h 11.0 mph /  17.7 km/h 70 % 0.00 in /  0 mm 0 W/m2
21:41 51.4 °F /  10.8 °C 42.3 °F /  5.7 °C 29.85 in /  1010.7 hPa ESE 7.0 mph /  11.3 km/h 11.0 mph /  17.7 km/h 71 % 0.00 in /  0 mm 0 W/m2
21:46 51.3 °F /  10.7 °C 42.5 °F /  5.8 °C 29.84 in /  1010.4 hPa ESE 6.0 mph /  9.7 km/h 10.0 mph /  16.1 km/h 72 % 0.00 in /  0 mm 0 W/m2
21:51 51.1 °F /  10.6 °C 42.7 °F /  5.9 °C 29.84 in /  1010.4 hPa ESE 6.0 mph /  9.7 km/h 12.0 mph /  19.3 km/h 73 % 0.00 in /  0 mm 0 W/m2
21:56 50.7 °F /  10.4 °C 42.4 °F /  5.8 °C 29.84 in /  1010.4 hPa ESE 5.0 mph /  8 km/h 12.0 mph /  19.3 km/h 73 % 0.00 in /  0 mm 0 W/m2
22:01 50.5 °F /  10.3 °C 42.6 °F /  5.9 °C 29.84 in /  1010.4 hPa ESE 3.0 mph /  4.8 km/h 8.0 mph /  12.9 km/h 74 % 0.00 in /  0 mm 0 W/m2
22:06 50.4 °F /  10.2 °C 42.7 °F /  5.9 °C 29.85 in /  1010.7 hPa ESE 4.0 mph /  6.4 km/h 8.0 mph /  12.9 km/h 75 % 0.00 in /  0 mm 0 W/m2
22:11 50.0 °F /  10 °C 43.1 °F /  6.2 °C 29.85 in /  1010.7 hPa ESE 5.0 mph /  8 km/h 10.0 mph /  16.1 km/h 77 % 0.00 in /  0 mm 0 W/m2
22:13 50.0 °F /  10 °C 43.1 °F /  6.2 °C 29.85 in /  1010.7 hPa ESE 6.0 mph /  9.7 km/h 12.0 mph /  19.3 km/h 77 % 0.00 in /  0 mm 0 W/m2
22:18 49.8 °F /  9.9 °C 43.2 °F /  6.2 °C 29.85 in /  1010.7 hPa ESE 6.0 mph /  9.7 km/h 12.0 mph /  19.3 km/h 78 % 0.00 in /  0 mm 0 W/m2
22:23 49.6 °F /  9.8 °C 43.4 °F /  6.3 °C 29.85 in /  1010.7 hPa ESE 5.0 mph /  8 km/h 10.0 mph /  16.1 km/h 79 % 0.00 in /  0 mm 0 W/m2
22:28 49.5 °F /  9.7 °C 43.2 °F /  6.2 °C 29.85 in /  1010.7 hPa ESE 5.0 mph /  8 km/h 10.0 mph /  16.1 km/h 79 % 0.00 in /  0 mm 0 W/m2
22:33 49.5 °F /  9.7 °C 43.5 °F /  6.4 °C 29.85 in /  1010.7 hPa ESE 5.0 mph /  8 km/h 8.0 mph /  12.9 km/h 80 % 0.00 in /  0 mm 0 W/m2
22:38 49.3 °F /  9.6 °C 43.7 °F /  6.5 °C 29.85 in /  1010.7 hPa SE 4.0 mph /  6.4 km/h 8.0 mph /  12.9 km/h 81 % 0.00 in /  0 mm 0 W/m2
22:43 49.3 °F /  9.6 °C 43.7 °F /  6.5 °C 29.85 in /  1010.7 hPa SE 4.0 mph /  6.4 km/h 10.0 mph /  16.1 km/h 81 % 0.00 in /  0 mm 0 W/m2
22:48 49.1 °F /  9.5 °C 43.8 °F /  6.6 °C 29.85 in /  1010.7 hPa ESE 5.0 mph /  8 km/h 10.0 mph /  16.1 km/h 82 % 0.00 in /  0 mm 0 W/m2
22:53 48.9 °F /  9.4 °C 43.7 °F /  6.5 °C 29.85 in /  1010.7 hPa ESE 4.0 mph /  6.4 km/h 9.0 mph /  14.5 km/h 82 % 0.00 in /  0 mm 0 W/m2
22:58 48.7 °F /  9.3 °C 43.8 °F /  6.6 °C 29.84 in /  1010.4 hPa ESE 4.0 mph /  6.4 km/h 8.0 mph /  12.9 km/h 83 % 0.00 in /  0 mm 0 W/m2
23:03 48.6 °F /  9.2 °C 43.6 °F /  6.4 °C 29.84 in /  1010.4 hPa ESE 4.0 mph /  6.4 km/h 8.0 mph /  12.9 km/h 83 % 0.00 in /  0 mm 0 W/m2
23:08 48.4 °F /  9.1 °C 43.8 °F /  6.6 °C 29.84 in /  1010.4 hPa ESE 4.0 mph /  6.4 km/h 8.0 mph /  12.9 km/h 84 % 0.00 in /  0 mm 0 W/m2
23:13 48.4 °F /  9.1 °C 43.8 °F /  6.6 °C 29.84 in /  1010.4 hPa ESE 3.0 mph /  4.8 km/h 8.0 mph /  12.9 km/h 84 % 0.00 in /  0 mm 0 W/m2
23:18 48.0 °F /  8.9 °C 43.4 °F /  6.3 °C 29.84 in /  1010.4 hPa ESE 4.0 mph /  6.4 km/h 8.0 mph /  12.9 km/h 84 % 0.00 in /  0 mm 0 W/m2
23:23 47.8 °F /  8.8 °C 43.2 °F /  6.2 °C 29.84 in /  1010.4 hPa ESE 4.0 mph /  6.4 km/h 8.0 mph /  12.9 km/h 84 % 0.00 in /  0 mm 0 W/m2
23:26 47.8 °F /  8.8 °C 43.5 °F /  6.4 °C 29.84 in /  1010.4 hPa ESE 4.0 mph /  6.4 km/h 8.0 mph /  12.9 km/h 85 % 0.00 in /  0 mm 0 W/m2
23:31 47.7 °F /  8.7 °C 43.4 °F /  6.3 °C 29.84 in /  1010.4 hPa ESE 4.0 mph /  6.4 km/h 8.0 mph /  12.9 km/h 85 % 0.00 in /  0 mm 0 W/m2
23:36 47.7 °F /  8.7 °C 43.4 °F /  6.3 °C 29.84 in /  1010.4 hPa ESE 4.0 mph /  6.4 km/h 8.0 mph /  12.9 km/h 85 % 0.00 in /  0 mm 0 W/m2
23:41 47.5 °F /  8.6 °C 43.2 °F /  6.2 °C 29.84 in /  1010.4 hPa ESE 4.0 mph /  6.4 km/h 8.0 mph /  12.9 km/h 85 % 0.00 in /  0 mm 0 W/m2
23:46 47.5 °F /  8.6 °C 43.2 °F /  6.2 °C 29.84 in /  1010.4 hPa ESE 4.0 mph /  6.4 km/h 9.0 mph /  14.5 km/h 85 % 0.00 in /  0 mm 0 W/m2
23:51 47.3 °F /  8.5 °C 43.0 °F /  6.1 °C 29.84 in /  1010.4 hPa ESE 6.0 mph /  9.7 km/h 12.0 mph /  19.3 km/h 85 % 0.00 in /  0 mm 0 W/m2
23:56 47.3 °F /  8.5 °C 43.0 °F /  6.1 °C 29.84 in /  1010.4 hPa ESE 6.0 mph /  9.7 km/h 12.0 mph /  19.3 km/h 85 % 0.00 in /  0 mm 0 W/m2
Delerius-Weather
Compliments of Weather Underground - 2.25 mb

Data updates at regular intervals.